Wetterdaten: aktuell Freitag, 24.05.2019 15:53
Datum Zeit Temp. A. Feuchte A. Luftdruck Regen Wind Richtung Richtung Taupunkt Windchill Windben
24.05.2019 15:53 21,1 C 45 % 1015,1 hPa 0,0 l/m 8,0 km/h (2 Bft) O-NO 67 8,7 C 20,5 C 11,3 km/h (2 Bft)
24.05.2019 14:53 20,5 C 46 % 1015,3 hPa 0,0 l/m 4,8 km/h (1 Bft) O-NO 67 8,5 C 20,5 C 6,4 km/h (2 Bft)
24.05.2019 13:53 20,4 C 50 % 1015,9 hPa 0,0 l/m 3,2 km/h (1 Bft) O-SO 112 9,6 C 20,4 C 6,4 km/h (2 Bft)
24.05.2019 12:53 19,5 C 48 % 1016,3 hPa 0,0 l/m 9,7 km/h (2 Bft) O-SO 112 8,2 C 18,2 C 12,9 km/h (3 Bft)
24.05.2019 11:53 18,8 C 52 % 1016,6 hPa 0,0 l/m 3,2 km/h (1 Bft) O-SO 112 8,7 C 18,8 C 6,4 km/h (2 Bft)
24.05.2019 10:53 17,4 C 53 % 1016,9 hPa 0,0 l/m 4,8 km/h (1 Bft) N 360 7,7 C 17,4 C 8,0 km/h (2 Bft)
24.05.2019 09:53 15,9 C 56 % 1017,3 hPa 0,0 l/m 3,2 km/h (1 Bft) O-NO 67 7,1 C 15,9 C 4,8 km/h (1 Bft)
24.05.2019 08:53 14,8 C 73 % 1017,4 hPa 0,0 l/m 3,2 km/h (1 Bft) N-NO 22 10,0 C 14,8 C 8,0 km/h (2 Bft)
24.05.2019 07:53 12,5 C 79 % 1017,4 hPa 0,0 l/m 0,0 km/h (0 Bft) N 0 9,0 C 12,5 C 0,0 km/h (0 Bft)
24.05.2019 06:53 8,8 C 92 % 1017,6 hPa 0,0 l/m 0,0 km/h (0 Bft) N 0 7,6 C 8,8 C 0,0 km/h (0 Bft)
24.05.2019 05:53 4,7 C 94 % 1017,6 hPa 0,0 l/m 0,0 km/h (0 Bft) N 0 3,8 C 4,7 C 0,0 km/h (0 Bft)
24.05.2019 04:53 3,7 C 94 % 1017,5 hPa 0,0 l/m 0,0 km/h (0 Bft) NO 45 2,8 C 3,7 C 1,6 km/h (1 Bft)
24.05.2019 03:53 4,1 C 93 % 1017,7 hPa 0,0 l/m 0,0 km/h (0 Bft) N 0 3,1 C 4,1 C 1,6 km/h (1 Bft)
24.05.2019 02:53 4,3 C 92 % 1017,9 hPa 0,0 l/m 0,0 km/h (0 Bft) N 0 3,1 C 4,3 C 0,0 km/h (0 Bft)
24.05.2019 01:53 4,9 C 92 % 1018,2 hPa 0,0 l/m 0,0 km/h (0 Bft) N 0 3,7 C 4,9 C 0,0 km/h (0 Bft)
24.05.2019 00:53 5,9 C 92 % 1018,3 hPa 0,0 l/m 0,0 km/h (0 Bft) N 0 4,7 C 5,9 C 0,0 km/h (0 Bft)
23.05.2019 23:53 6,2 C 91 % 1018,6 hPa 0,0 l/m 0,0 km/h (0 Bft) N 0 4,8 C 6,2 C 0,0 km/h (0 Bft)
23.05.2019 22:53 7,2 C 90 % 1018,8 hPa 0,0 l/m 1,6 km/h (1 Bft) NO 45 5,7 C 7,2 C 3,2 km/h (1 Bft)
23.05.2019 21:53 9,3 C 83 % 1019,0 hPa 0,0 l/m 0,0 km/h (0 Bft) N 0 6,6 C 9,3 C 0,0 km/h (0 Bft)
23.05.2019 20:53 10,4 C 80 % 1019,2 hPa 0,0 l/m 0,0 km/h (0 Bft) NO 45 7,1 C 10,4 C 1,6 km/h (1 Bft)
23.05.2019 19:53 13,8 C 73 % 1018,5 hPa 0,0 l/m 0,0 km/h (0 Bft) NO 45 9,0 C 13,8 C 1,6 km/h (1 Bft)
23.05.2019 18:53 16,6 C 51 % 1018,5 hPa 0,0 l/m 6,4 km/h (2 Bft) NO 45 6,4 C 16,6 C 8,0 km/h (2 Bft)
23.05.2019 17:53 17,9 C 48 % 1018,5 hPa 0,0 l/m 4,8 km/h (1 Bft) N-NO 22 6,7 C 17,9 C 11,3 km/h (2 Bft)
23.05.2019 16:53 18,1 C 42 % 1018,9 hPa 0,0 l/m 6,4 km/h (2 Bft) N-NW 337 5,0 C 18,1 C 9,7 km/h (2 Bft)
23.05.2019 16:00 18,1 C 48 % 1019,1 hPa 0,0 l/m 3,2 km/h (1 Bft) SO 135 6,9 C 18,1 C 4,8 km/h (1 Bft)
_ Min-Zeit 05:08 17:06 15:40 - 16:32 - - 05:08 05:08 19:40
Minimum _ 3,2 C 39 % 1015,1 hPa - 0,0 km/h (0 Bft) - - 2,2 C 3,2 C 0,0 km/h (0 Bft)
_ Max-Zeit 14:23 06:23 16:04 16:00 13:21 - - 14:21 14:23 13:18
Maximum _ 21,3 C 95 % 1019,2 hPa 0,0 l/m 14,5 km/h
NO (3 Bft)
- - 12,2 C 21,3 C 19,3 km/h
NO (3 Bft)
Durchschnitt _ 12,8 C 69 % 1017,8 hPa #0,0 l/m 2,5 km/h (1 Bft) NO - 6,6 C 12,7 C 4,1 km/h (1 Bft)